Terminal Aerodrome Forecast
Issued by NWS

Home | Current Version | Previous Version | Text Only | Print | Product List | Glossary On
Versions: 1 2 3 4 5 6 7 8 9 10 11 12 13 14 15 16
000
FTUS46 KMFR 261741
TAFOTH
TAF
KOTH 261741Z 2618/2718 14007KT P6SM FEW015
     FM262000 24008KT P6SM SCT015 SCT200
     FM270100 22005KT 5SM BR SCT006 OVC012
     FM270400 20004KT 3SM BR SCT005 OVC008
     FM271500 16004KT P6SM SCT007 OVC015=

USA.gov is the U.S. government's official web portal to all federal, state and local government web resources and services.